Time;durP1;ratioP1;P1;durP2;ratioP2;P2;SDS_P1;SDS_P2;PMS_P1;PMS_P2;Temp;Humidity;BMP_temperature;BMP_pressure;BME280_temperature;BME280_humidity;BME280_pressure;Samples;Min_cycle;Max_cycle;Signal;HPM_P1;HPM_P2
2022/05/06 00:01:33;;;;;;;35.72;15.85;;;;;;;;;;5002389;28;20042;-59
2022/05/06 00:04:00;;;;;;;26.30;12.38;;;;;;;;;;5025075;28;20136;-58
2022/05/06 00:06:29;;;;;;;29.45;13.15;;;;;;;;;;5018925;28;20061;-59
2022/05/06 00:08:55;;;;;;;;;;;;;;;;;;5035338;28;20081;-59
2022/05/06 00:11:22;;;;;;;22.10;10.48;;;;;;;;;;5023279;28;19928;-59
2022/05/06 00:13:48;;;;;;;21.10;10.85;;;;;;;;;;5029137;28;20200;-59
2022/05/06 00:16:15;;;;;;;25.45;11.45;;;;;;;;;;5026803;28;20057;-59
2022/05/06 00:18:43;;;;;;;35.30;17.10;;;;;;;;;;5016395;28;20050;-59
2022/05/06 00:21:10;;;;;;;24.38;10.68;;;;;;;;;;5042948;28;20053;-61
2022/05/06 00:23:36;;;;;;;28.55;12.05;;;;;;;;;;5014958;28;20038;-60
2022/05/06 00:26:04;;;;;;;37.40;16.50;;;;;;;;;;5022134;28;20103;-60
2022/05/06 00:28:30;;;;;;;45.38;19.42;;;;;;;;;;5013622;28;20078;-60
2022/05/06 00:30:57;;;;;;;28.70;12.80;;;;;;;;;;4987747;28;20147;-60
2022/05/06 00:33:24;;;;;;;31.30;13.18;;;;;;;;;;4991567;28;20046;-61
2022/05/06 00:35:54;;;;;;;23.48;10.60;;;;;;;;;;5037629;28;20081;-59
2022/05/06 00:38:21;;;;;;;30.92;14.05;;;;;;;;;;5036650;28;20071;-58
2022/05/06 00:40:48;;;;;;;30.23;13.45;;;;;;;;;;5053717;28;20060;-60
2022/05/06 00:43:14;;;;;;;21.92;10.77;;;;;;;;;;5036328;28;20053;-59
2022/05/06 00:45:45;;;;;;;25.83;11.65;;;;;;;;;;5026497;28;20053;-59
2022/05/06 00:48:12;;;;;;;26.38;12.13;;;;;;;;;;5020554;28;20058;-60
2022/05/06 00:50:39;;;;;;;24.73;11.13;;;;;;;;;;5029650;28;20165;-59
2022/05/06 00:53:08;;;;;;;24.60;11.35;;;;;;;;;;5024590;28;20057;-59
2022/05/06 00:55:34;;;;;;;23.33;10.80;;;;;;;;;;5028453;28;20063;-59
2022/05/06 00:58:02;;;;;;;32.58;13.38;;;;;;;;;;5031096;28;20057;-60
2022/05/06 01:00:29;;;;;;;42.10;16.60;;;;;;;;;;5024487;28;20057;-61
2022/05/06 01:02:56;;;;;;;33.38;14.93;;;;;;;;;;5031013;28;20100;-61
2022/05/06 01:05:23;;;;;;;22.60;11.30;;;;;;;;;;5026850;28;20076;-61
2022/05/06 01:07:51;;;;;;;28.90;13.55;;;;;;;;;;5032429;28;20132;-61
2022/05/06 01:10:20;;;;;;;27.63;11.98;;;;;;;;;;5024040;28;20057;-62
2022/05/06 01:12:47;;;;;;;27.05;12.20;;;;;;;;;;5045444;28;20149;-61
2022/05/06 01:15:20;;;;;;;23.95;11.55;;;;;;;;;;5037964;28;20053;-59
2022/05/06 01:17:47;;;;;;;33.72;14.13;;;;;;;;;;5028923;28;20055;-58
2022/05/06 01:20:16;;;;;;;34.72;13.85;;;;;;;;;;5022321;28;20045;-62
2022/05/06 01:22:46;;;;;;;29.13;12.30;;;;;;;;;;5028894;28;20049;-61
2022/05/06 01:25:12;;;;;;;29.58;12.27;;;;;;;;;;5039749;28;20041;-59
2022/05/06 01:27:42;;;;;;;41.95;16.88;;;;;;;;;;5029331;28;20096;-59
2022/05/06 01:30:11;;;;;;;33.92;13.38;;;;;;;;;;5022860;28;20061;-59
2022/05/06 01:32:38;;;;;;;31.17;14.20;;;;;;;;;;5027871;28;20057;-59
2022/05/06 01:35:05;;;;;;;26.35;12.32;;;;;;;;;;5038863;28;20064;-60
2022/05/06 01:37:35;;;;;;;32.33;13.02;;;;;;;;;;5028994;28;20060;-59
2022/05/06 01:40:04;;;;;;;27.15;10.98;;;;;;;;;;5023440;28;20072;-59
2022/05/06 01:42:33;;;;;;;37.47;15.48;;;;;;;;;;5043265;28;20058;-59
2022/05/06 01:45:01;;;;;;;38.00;16.23;;;;;;;;;;5031728;28;20049;-59
2022/05/06 01:47:28;;;;;;;30.73;12.68;;;;;;;;;;5019152;28;20077;-59
2022/05/06 01:49:56;;;;;;;32.00;13.75;;;;;;;;;;5032027;28;20123;-59
2022/05/06 01:52:22;;;;;;;29.42;12.57;;;;;;;;;;5015850;28;20057;-59
2022/05/06 01:54:49;;;;;;;29.83;12.15;;;;;;;;;;5027144;28;20137;-59
2022/05/06 01:57:17;;;;;;;40.75;14.35;;;;;;;;;;5024298;28;20113;-59
2022/05/06 01:59:45;;;;;;;33.97;13.45;;;;;;;;;;5024848;28;20057;-60
2022/05/06 02:02:11;;;;;;;31.20;13.52;;;;;;;;;;5001420;28;20064;-59
2022/05/06 02:07:22;;;;;;;36.53;13.07;;;;;;;;;;5031112;28;20065;-59
2022/05/06 02:09:48;;;;;;;28.40;12.20;;;;;;;;;;5016939;28;20057;-61
2022/05/06 02:12:16;;;;;;;38.45;15.88;;;;;;;;;;5038367;28;20077;-59
2022/05/06 02:14:43;;;;;;;51.17;18.27;;;;;;;;;;5041576;28;20173;-58
2022/05/06 02:17:10;;;;;;;28.63;12.52;;;;;;;;;;5044759;28;20049;-59
2022/05/06 02:19:37;;;;;;;29.17;11.65;;;;;;;;;;5028100;28;20136;-60
2022/05/06 02:22:03;;;;;;;24.33;11.38;;;;;;;;;;5022262;28;20053;-60
2022/05/06 02:24:30;;;;;;;34.95;14.23;;;;;;;;;;5027554;28;20056;-59
2022/05/06 02:26:56;;;;;;;35.17;14.43;;;;;;;;;;5037267;28;20081;-59
2022/05/06 02:29:24;;;;;;;35.03;13.93;;;;;;;;;;5027359;28;20049;-60
2022/05/06 02:34:35;;;;;;;29.08;11.60;;;;;;;;;;5041851;28;20131;-60
2022/05/06 02:37:02;;;;;;;25.23;11.63;;;;;;;;;;5028262;28;20053;-60
2022/05/06 02:39:28;;;;;;;38.85;15.88;;;;;;;;;;5005478;28;20050;-62
2022/05/06 02:41:55;;;;;;;25.98;11.85;;;;;;;;;;5026813;28;20057;-60
2022/05/06 02:44:24;;;;;;;27.92;11.82;;;;;;;;;;5019735;28;20053;-61
2022/05/06 02:46:50;;;;;;;25.38;11.18;;;;;;;;;;5042033;28;20045;-62
2022/05/06 02:49:17;;;;;;;38.20;16.02;;;;;;;;;;5037976;28;20061;-62
2022/05/06 02:51:44;;;;;;;23.27;11.40;;;;;;;;;;5027009;28;20050;-61
2022/05/06 02:54:10;;;;;;;30.95;12.63;;;;;;;;;;5021660;28;20054;-61
2022/05/06 02:56:37;;;;;;;28.60;11.35;;;;;;;;;;5027572;28;20065;-59
2022/05/06 02:59:04;;;;;;;28.20;12.30;;;;;;;;;;5022050;28;20055;-61
2022/05/06 03:01:34;;;;;;;25.80;11.05;;;;;;;;;;5044297;28;20053;-59
2022/05/06 03:04:01;;;;;;;23.38;10.55;;;;;;;;;;5019882;28;20049;-61
2022/05/06 03:06:27;;;;;;;26.65;12.10;;;;;;;;;;5027601;28;20186;-60
2022/05/06 03:08:54;;;;;;;27.15;11.95;;;;;;;;;;5018200;28;20049;-60
2022/05/06 03:11:20;;;;;;;26.40;11.75;;;;;;;;;;5012815;28;20114;-59
2022/05/06 03:13:47;;;;;;;21.75;9.85;;;;;;;;;;5036334;28;20057;-59
2022/05/06 03:16:13;;;;;;;24.25;10.82;;;;;;;;;;5025140;28;20073;-62
2022/05/06 03:18:41;;;;;;;25.13;11.68;;;;;;;;;;5044714;28;20050;-59
2022/05/06 03:21:09;;;;;;;26.55;12.23;;;;;;;;;;5039255;28;20053;-59
2022/05/06 03:23:35;;;;;;;23.95;10.38;;;;;;;;;;5027400;28;20045;-60
2022/05/06 03:26:02;;;;;;;28.17;11.85;;;;;;;;;;5024067;28;20045;-59
2022/05/06 03:28:31;;;;;;;21.67;10.35;;;;;;;;;;5027062;28;20143;-59
2022/05/06 03:30:58;;;;;;;21.67;10.52;;;;;;;;;;5020630;28;20053;-59
2022/05/06 03:33:26;;;;;;;20.38;9.68;;;;;;;;;;5043438;28;20061;-59
2022/05/06 03:35:55;;;;;;;19.42;9.10;;;;;;;;;;5036628;28;20099;-61
2022/05/06 03:38:21;;;;;;;22.08;10.30;;;;;;;;;;5043484;28;20084;-59
2022/05/06 03:40:48;;;;;;;22.73;10.27;;;;;;;;;;5021588;28;20136;-59
2022/05/06 03:43:15;;;;;;;23.95;11.10;;;;;;;;;;5027122;28;20056;-60
2022/05/06 03:45:42;;;;;;;25.38;11.65;;;;;;;;;;5020488;28;20111;-59
2022/05/06 03:48:09;;;;;;;17.95;9.10;;;;;;;;;;5026750;28;20057;-60
2022/05/06 03:53:21;;;;;;;18.98;9.23;;;;;;;;;;5035299;28;20065;-61
2022/05/06 03:55:47;;;;;;;22.75;9.27;;;;;;;;;;5023036;28;20085;-59
2022/05/06 03:58:14;;;;;;;18.02;8.45;;;;;;;;;;5022873;28;20045;-59
2022/05/06 04:00:41;;;;;;;19.15;9.02;;;;;;;;;;5025588;28;20049;-60
2022/05/06 04:03:07;;;;;;;21.90;10.15;;;;;;;;;;5026502;28;20093;-59
2022/05/06 04:05:34;;;;;;;18.48;8.23;;;;;;;;;;5022810;28;20137;-61
2022/05/06 04:08:01;;;;;;;17.05;8.18;;;;;;;;;;5025327;28;20064;-59
2022/05/06 04:10:29;;;;;;;21.98;10.70;;;;;;;;;;5018547;28;20058;-60
2022/05/06 04:12:56;;;;;;;20.27;9.55;;;;;;;;;;5051851;28;20080;-61
2022/05/06 04:15:22;;;;;;;15.38;7.63;;;;;;;;;;5021085;28;20053;-59
2022/05/06 04:17:49;;;;;;;18.23;8.32;;;;;;;;;;5023467;28;20061;-61
2022/05/06 04:25:49;;;;;;;21.67;9.63;;;;;;;;;;5007370;28;20042;-59
2022/05/06 04:28:16;;;;;;;25.63;11.30;;;;;;;;;;5034621;28;20119;-59
2022/05/06 04:30:43;;;;;;;20.13;9.43;;;;;;;;;;5029065;28;20120;-59
2022/05/06 04:33:09;;;;;;;24.25;10.18;;;;;;;;;;5024879;28;20065;-59
2022/05/06 04:35:36;;;;;;;14.52;7.53;;;;;;;;;;5029902;28;20057;-59
2022/05/06 04:38:03;;;;;;;16.02;7.88;;;;;;;;;;5030409;28;20060;-59
2022/05/06 04:40:29;;;;;;;21.30;9.82;;;;;;;;;;5009902;28;20054;-58
2022/05/06 04:42:57;;;;;;;20.83;9.40;;;;;;;;;;5003903;28;20057;-59
2022/05/06 04:45:24;;;;;;;17.83;8.20;;;;;;;;;;5025941;28;20050;-59
2022/05/06 04:47:51;;;;;;;15.90;7.72;;;;;;;;;;5039812;28;20049;-59
2022/05/06 04:50:18;;;;;;;18.60;8.30;;;;;;;;;;5029091;28;20077;-59
2022/05/06 04:52:44;;;;;;;25.48;11.32;;;;;;;;;;5055212;28;20065;-58
2022/05/06 04:55:11;;;;;;;25.33;11.43;;;;;;;;;;5026822;28;20056;-61
2022/05/06 04:57:37;;;;;;;18.25;8.35;;;;;;;;;;5004414;28;20053;-59
2022/05/06 05:00:07;;;;;;;17.30;7.40;;;;;;;;;;5007678;28;20077;-59
2022/05/06 05:02:33;;;;;;;14.68;7.45;;;;;;;;;;5028101;28;20046;-58
2022/05/06 05:05:00;;;;;;;20.38;8.00;;;;;;;;;;5038107;28;20052;-59
2022/05/06 05:07:27;;;;;;;15.70;7.35;;;;;;;;;;5031698;28;20083;-59
2022/05/06 05:09:54;;;;;;;15.10;7.15;;;;;;;;;;5037872;28;20087;-59
2022/05/06 05:12:20;;;;;;;16.00;7.82;;;;;;;;;;5028766;28;20061;-59
2022/05/06 05:14:47;;;;;;;16.27;7.55;;;;;;;;;;5039956;28;20140;-61
2022/05/06 05:17:18;;;;;;;15.02;7.05;;;;;;;;;;5044922;28;20053;-59
2022/05/06 05:19:45;;;;;;;14.98;7.18;;;;;;;;;;5038551;28;20057;-61
2022/05/06 05:22:11;;;;;;;13.85;6.38;;;;;;;;;;5045569;28;20073;-59
2022/05/06 05:24:38;;;;;;;13.43;6.50;;;;;;;;;;5039840;28;20061;-60
2022/05/06 05:27:05;;;;;;;16.77;7.25;;;;;;;;;;5044291;28;20057;-59
2022/05/06 05:29:31;;;;;;;16.27;6.93;;;;;;;;;;5039351;28;20049;-59
2022/05/06 05:31:58;;;;;;;15.52;7.13;;;;;;;;;;5044561;28;20057;-61
2022/05/06 05:34:26;;;;;;;21.67;8.00;;;;;;;;;;5037747;28;20071;-59
2022/05/06 05:36:52;;;;;;;15.82;7.03;;;;;;;;;;5044724;28;20053;-60
2022/05/06 05:39:19;;;;;;;12.60;6.63;;;;;;;;;;5037172;28;20053;-60
2022/05/06 05:41:46;;;;;;;15.70;7.15;;;;;;;;;;5028687;28;20098;-59
2022/05/06 05:49:50;;;;;;;12.05;6.13;;;;;;;;;;4978312;28;20053;-59
2022/05/06 05:52:16;;;;;;;14.20;6.90;;;;;;;;;;5046752;28;20050;-59
2022/05/06 05:54:43;;;;;;;13.90;6.32;;;;;;;;;;5028035;28;20059;-58
2022/05/06 05:57:10;;;;;;;13.50;6.47;;;;;;;;;;5033729;28;20061;-59
2022/05/06 05:59:38;;;;;;;11.68;5.57;;;;;;;;;;5049562;28;20052;-58
2022/05/06 06:02:06;;;;;;;16.67;6.50;;;;;;;;;;5026651;28;20113;-59
2022/05/06 06:04:32;;;;;;;12.75;5.82;;;;;;;;;;5011629;28;20041;-58
2022/05/06 06:07:00;;;;;;;14.15;6.68;;;;;;;;;;5019339;28;20144;-58
2022/05/06 06:09:28;;;;;;;12.93;6.57;;;;;;;;;;5033986;28;20049;-58
2022/05/06 06:12:03;;;;;;;14.18;7.18;;;;;;;;;;5023724;28;20316;-60
2022/05/06 06:14:29;;;;;;;12.35;6.40;;;;;;;;;;5015209;28;20065;-59
2022/05/06 06:16:56;;;;;;;12.93;5.80;;;;;;;;;;5030399;28;20054;-59
2022/05/06 06:19:23;;;;;;;11.35;5.35;;;;;;;;;;5045572;28;20054;-58
2022/05/06 06:21:52;;;;;;;14.97;6.63;;;;;;;;;;5034656;28;20049;-59
2022/05/06 06:24:20;;;;;;;11.82;5.20;;;;;;;;;;5046066;28;20076;-58
2022/05/06 06:26:47;;;;;;;12.13;5.95;;;;;;;;;;5023418;28;20050;-58
2022/05/06 06:29:14;;;;;;;10.75;5.55;;;;;;;;;;5046951;28;20076;-58
2022/05/06 06:31:53;;;;;;;11.45;5.82;;;;;;;;;;5041653;28;20037;-58
2022/05/06 06:34:20;;;;;;;12.07;5.38;;;;;;;;;;5045304;28;20041;-58
2022/05/06 06:36:46;;;;;;;9.57;5.00;;;;;;;;;;5040673;28;20144;-58
2022/05/06 06:39:16;;;;;;;11.80;6.28;;;;;;;;;;5030245;28;20068;-58
2022/05/06 06:41:50;;;;;;;;;;;;;;;;;;5033376;28;20091;-58
2022/05/06 06:44:17;;;;;;;12.35;5.40;;;;;;;;;;5045678;28;19925;-58
2022/05/06 06:46:44;;;;;;;11.07;5.07;;;;;;;;;;5046077;28;20054;-58
2022/05/06 06:49:11;;;;;;;11.23;5.13;;;;;;;;;;5040284;28;20061;-58
2022/05/06 06:51:44;;;;;;;13.00;6.20;;;;;;;;;;5046077;28;20057;-58
2022/05/06 06:54:13;;;;;;;13.43;6.10;;;;;;;;;;5040319;28;20061;-58
2022/05/06 06:56:40;;;;;;;12.95;5.88;;;;;;;;;;5044287;28;20049;-58
2022/05/06 06:59:07;;;;;;;12.35;6.25;;;;;;;;;;5034965;28;20060;-58
2022/05/06 07:01:37;;;;;;;9.05;4.55;;;;;;;;;;5032602;28;20053;-58
2022/05/06 07:04:04;;;;;;;16.38;6.80;;;;;;;;;;5018110;28;20053;-58
2022/05/06 07:11:58;;;;;;;16.85;7.65;;;;;;;;;;5046003;28;20068;-58
2022/05/06 07:14:26;;;;;;;12.85;5.40;;;;;;;;;;4984401;28;20163;-60
2022/05/06 07:16:56;;;;;;;15.02;6.72;;;;;;;;;;5000415;28;20054;-58
2022/05/06 07:19:23;;;;;;;16.67;6.57;;;;;;;;;;5004283;28;20053;-58
2022/05/06 07:21:51;;;;;;;16.13;6.63;;;;;;;;;;5026849;28;20050;-59
2022/05/06 07:24:19;;;;;;;11.77;6.22;;;;;;;;;;4984848;28;20054;-58
2022/05/06 07:26:46;;;;;;;;;;;;;;;;;;5009064;28;20116;-60
2022/05/06 07:29:12;;;;;;;12.43;5.75;;;;;;;;;;5002446;28;19941;-60
2022/05/06 07:31:44;;;;;;;14.65;6.20;;;;;;;;;;5024856;28;20073;-62
2022/05/06 07:34:12;;;;;;;12.50;5.18;;;;;;;;;;5018371;28;20066;-59
2022/05/06 07:36:41;;;;;;;10.90;4.97;;;;;;;;;;4992068;28;20126;-58
2022/05/06 07:39:12;;;;;;;13.43;5.72;;;;;;;;;;5000027;28;20046;-58
2022/05/06 07:41:43;;;;;;;10.73;5.10;;;;;;;;;;5009507;28;20050;-59
2022/05/06 07:44:10;;;;;;;10.68;4.97;;;;;;;;;;5020563;28;20144;-59
2022/05/06 07:46:37;;;;;;;9.43;4.28;;;;;;;;;;5007665;28;20081;-59
2022/05/06 07:49:04;;;;;;;9.55;4.57;;;;;;;;;;5006881;28;20054;-58
2022/05/06 07:51:33;;;;;;;9.95;4.68;;;;;;;;;;5019455;28;20042;-58
2022/05/06 07:54:00;;;;;;;9.52;4.95;;;;;;;;;;4992622;28;20050;-58
2022/05/06 07:56:28;;;;;;;7.47;4.07;;;;;;;;;;5017613;28;20057;-58
2022/05/06 07:58:56;;;;;;;;;;;;;;;;;;5012474;28;20051;-59
2022/05/06 08:04:34;;;;;;;8.48;3.72;;;;;;;;;;5013460;28;20065;-58
2022/05/06 08:07:02;;;;;;;8.40;4.55;;;;;;;;;;5006562;28;20133;-58
2022/05/06 08:09:29;;;;;;;8.65;4.13;;;;;;;;;;4994991;28;20122;-58
2022/05/06 08:12:11;;;;;;;8.40;4.18;;;;;;;;;;5006455;28;20064;-58
2022/05/06 08:14:37;;;;;;;8.93;4.20;;;;;;;;;;5047304;28;20049;-58
2022/05/06 08:17:05;;;;;;;10.25;5.38;;;;;;;;;;5043462;28;20064;-58
2022/05/06 08:19:31;;;;;;;8.90;4.85;;;;;;;;;;5048434;28;20049;-58
2022/05/06 08:21:58;;;;;;;10.25;4.90;;;;;;;;;;5026173;28;20045;-58
2022/05/06 08:24:27;;;;;;;8.15;3.78;;;;;;;;;;5047953;28;20049;-58
2022/05/06 08:26:54;;;;;;;8.77;4.93;;;;;;;;;;5043026;28;20053;-58
2022/05/06 08:29:22;;;;;;;8.82;4.28;;;;;;;;;;5048066;28;20061;-58
2022/05/06 08:31:53;;;;;;;10.27;4.82;;;;;;;;;;5025311;28;20053;-58
2022/05/06 08:34:19;;;;;;;8.48;4.10;;;;;;;;;;5047777;28;20076;-58
2022/05/06 08:36:46;;;;;;;9.68;4.10;;;;;;;;;;5043163;28;20107;-59
2022/05/06 08:39:13;;;;;;;8.05;3.88;;;;;;;;;;5048177;28;20084;-60
2022/05/06 08:41:42;;;;;;;9.77;4.50;;;;;;;;;;5025095;28;20045;-58
2022/05/06 08:52:26;;;;;;;8.63;4.38;;;;;;;;;;5026252;28;20049;-59
2022/05/06 08:54:53;;;;;;;12.77;5.72;;;;;;;;;;5046582;28;20053;-59
2022/05/06 08:57:31;;;;;;;;;;;;;;;;;;;;;
2022/05/06 09:00:11;;;;;;;10.50;5.50;;;;;;;;;;5012865;28;20057;-60
2022/05/06 09:02:38;;;;;;;8.82;3.75;;;;;;;;;;5033374;28;20045;-59
2022/05/06 09:05:14;;;;;;;10.00;5.35;;;;;;;;;;5048024;28;20049;-59
2022/05/06 09:07:42;;;;;;;11.38;5.82;;;;;;;;;;5042276;28;20056;-62
2022/05/06 09:10:15;;;;;;;11.98;6.00;;;;;;;;;;5046176;28;20059;-60
2022/05/06 09:12:46;;;;;;;11.02;5.68;;;;;;;;;;5041306;28;20053;-59
2022/05/06 09:17:58;;;;;;;9.35;3.45;;;;;;;;;;5041226;28;20049;-60
2022/05/06 09:20:27;;;;;;;11.65;5.78;;;;;;;;;;5046976;28;20077;-58
2022/05/06 09:22:54;;;;;;;13.65;6.50;;;;;;;;;;5043822;28;20104;-59
2022/05/06 09:25:42;;;;;;;10.38;5.07;;;;;;;;;;5062558;28;20053;-59
2022/05/06 09:28:21;;;;;;;8.93;4.35;;;;;;;;;;5042363;28;20076;-59
2022/05/06 09:30:59;;;;;;;10.63;4.45;;;;;;;;;;5029040;28;20050;-61
2022/05/06 09:33:28;;;;;;;10.77;5.20;;;;;;;;;;5024063;28;20061;-59
2022/05/06 09:35:55;;;;;;;7.97;3.80;;;;;;;;;;5031254;28;20084;-58
2022/05/06 09:38:22;;;;;;;7.53;3.78;;;;;;;;;;5047805;28;20049;-59
2022/05/06 09:40:50;;;;;;;8.75;4.30;;;;;;;;;;5041330;28;20059;-58
2022/05/06 09:43:18;;;;;;;13.27;5.27;;;;;;;;;;5030780;28;20057;-58
2022/05/06 09:45:46;;;;;;;13.02;6.25;;;;;;;;;;5024362;28;20052;-59
2022/05/06 09:48:14;;;;;;;7.95;4.15;;;;;;;;;;5046673;28;20084;-59
2022/05/06 09:50:48;;;;;;;10.20;4.75;;;;;;;;;;5020712;28;20077;-59
2022/05/06 09:53:16;;;;;;;15.30;5.30;;;;;;;;;;5026328;28;20046;-59
2022/05/06 09:55:44;;;;;;;10.00;4.90;;;;;;;;;;5029482;28;20136;-58
2022/05/06 09:58:11;;;;;;;9.32;3.83;;;;;;;;;;5039044;28;20056;-58
2022/05/06 10:00:50;;;;;;;9.82;4.45;;;;;;;;;;5012277;28;20049;-59
2022/05/06 10:03:16;;;;;;;9.35;4.88;;;;;;;;;;5040176;28;20076;-59
2022/05/06 10:05:43;;;;;;;8.43;3.83;;;;;;;;;;4998850;28;20069;-58
2022/05/06 10:08:13;;;;;;;8.32;3.72;;;;;;;;;;5019770;28;20055;-59
2022/05/06 10:10:42;;;;;;;7.93;3.45;;;;;;;;;;5030830;28;20146;-58
2022/05/06 10:13:12;;;;;;;7.68;4.15;;;;;;;;;;5046231;28;20099;-58
2022/05/06 10:15:39;;;;;;;11.50;4.55;;;;;;;;;;5041448;28;20046;-59
2022/05/06 10:18:08;;;;;;;9.20;5.38;;;;;;;;;;5046421;28;20049;-59
2022/05/06 10:20:59;;;;;;;8.30;4.55;;;;;;;;;;5019147;28;20112;-59
2022/05/06 10:23:40;;;;;;;10.50;5.75;;;;;;;;;;5034570;28;20056;-59
2022/05/06 10:26:07;;;;;;;10.18;5.78;;;;;;;;;;5011421;28;20064;-58
2022/05/06 10:34:29;;;;;;;9.98;5.15;;;;;;;;;;5045960;28;20054;-61
2022/05/06 10:36:56;;;;;;;11.35;5.55;;;;;;;;;;5032053;28;20049;-59
2022/05/06 10:39:24;;;;;;;7.57;4.00;;;;;;;;;;5010643;28;20100;-58
2022/05/06 10:42:14;;;;;;;6.95;3.72;;;;;;;;;;5020947;28;20046;-59
2022/05/06 10:44:42;;;;;;;9.90;5.03;;;;;;;;;;5022471;28;20060;-61
2022/05/06 10:47:27;;;;;;;8.90;5.15;;;;;;;;;;5040709;28;20053;-59
2022/05/06 10:49:58;;;;;;;9.73;4.25;;;;;;;;;;5044929;28;20057;-59
2022/05/06 10:52:47;;;;;;;6.97;3.70;;;;;;;;;;5040304;28;20053;-60
2022/05/06 10:55:15;;;;;;;11.10;4.80;;;;;;;;;;5009173;28;20120;-58
2022/05/06 10:57:46;;;;;;;8.10;4.68;;;;;;;;;;5020088;28;20049;-59
2022/05/06 11:00:25;;;;;;;5.50;2.88;;;;;;;;;;5020262;28;20046;-58
2022/05/06 11:02:52;;;;;;;9.10;3.60;;;;;;;;;;5022532;28;20136;-58
2022/05/06 11:05:21;;;;;;;7.38;3.58;;;;;;;;;;5031579;28;20108;-59
2022/05/06 11:07:50;;;;;;;7.32;3.83;;;;;;;;;;5023940;28;20130;-58
2022/05/06 11:10:18;;;;;;;5.68;2.80;;;;;;;;;;5045736;28;20049;-59
2022/05/06 11:12:45;;;;;;;5.00;2.58;;;;;;;;;;5036026;28;20056;-59
2022/05/06 11:15:13;;;;;;;4.60;2.50;;;;;;;;;;5026895;28;20132;-59
2022/05/06 11:17:40;;;;;;;4.45;2.58;;;;;;;;;;5025590;28;20082;-59
2022/05/06 11:20:21;;;;;;;5.90;2.80;;;;;;;;;;5028073;28;20061;-59
2022/05/06 11:22:52;;;;;;;8.25;3.58;;;;;;;;;;5037930;28;20054;-60
2022/05/06 11:25:18;;;;;;;10.20;4.45;;;;;;;;;;5044090;28;20144;-59
2022/05/06 11:27:45;;;;;;;5.20;2.70;;;;;;;;;;5040364;28;20072;-59
2022/05/06 11:30:17;;;;;;;4.43;2.28;;;;;;;;;;5043167;28;20056;-58
2022/05/06 11:32:49;;;;;;;5.13;2.60;;;;;;;;;;5042518;28;20045;-59
2022/05/06 11:35:16;;;;;;;6.38;2.70;;;;;;;;;;5036163;28;20054;-59
2022/05/06 11:37:44;;;;;;;5.03;2.38;;;;;;;;;;5041597;28;20057;-58
2022/05/06 11:40:34;;;;;;;6.72;3.45;;;;;;;;;;5036100;28;20045;-61
2022/05/06 11:43:00;;;;;;;12.35;4.25;;;;;;;;;;5025746;28;20037;-59
2022/05/06 11:48:12;;;;;;;5.68;3.33;;;;;;;;;;5042765;28;20057;-59
2022/05/06 11:50:40;;;;;;;8.48;4.00;;;;;;;;;;5001929;28;20058;-60
2022/05/06 11:53:09;;;;;;;10.10;5.05;;;;;;;;;;5041370;28;20056;-60
2022/05/06 11:55:36;;;;;;;14.40;7.30;;;;;;;;;;5036158;28;20156;-59
2022/05/06 11:58:05;;;;;;;11.68;5.68;;;;;;;;;;5026986;28;20141;-59
2022/05/06 12:00:33;;;;;;;8.88;4.60;;;;;;;;;;5018188;28;20056;-59
2022/05/06 12:03:03;;;;;;;10.05;4.63;;;;;;;;;;5022540;28;20045;-60
2022/05/06 12:05:29;;;;;;;7.05;3.08;;;;;;;;;;5016675;28;20050;-62
2022/05/06 12:07:56;;;;;;;7.68;3.88;;;;;;;;;;5022683;28;20049;-60
2022/05/06 12:10:27;;;;;;;9.75;4.95;;;;;;;;;;5024560;28;20050;-59
2022/05/06 12:12:54;;;;;;;7.20;3.72;;;;;;;;;;5026648;28;20131;-59
2022/05/06 12:15:21;;;;;;;8.05;4.20;;;;;;;;;;5034043;28;20080;-58
2022/05/06 12:17:47;;;;;;;7.80;4.00;;;;;;;;;;5024796;28;20054;-61
2022/05/06 12:20:36;;;;;;;10.48;5.05;;;;;;;;;;5002098;28;20089;-59
2022/05/06 12:23:03;;;;;;;7.57;3.95;;;;;;;;;;5043072;28;20064;-60
2022/05/06 12:25:31;;;;;;;9.55;3.78;;;;;;;;;;5035732;28;20060;-60
2022/05/06 12:28:15;;;;;;;7.43;3.40;;;;;;;;;;5041865;28;20061;-60
2022/05/06 12:30:42;;;;;;;6.75;3.28;;;;;;;;;;5019947;28;20049;-59
2022/05/06 12:33:11;;;;;;;7.30;3.35;;;;;;;;;;5042751;28;20088;-62
2022/05/06 12:36:02;;;;;;;6.97;3.17;;;;;;;;;;5035898;28;20084;-59
2022/05/06 12:38:46;;;;;;;6.10;3.05;;;;;;;;;;5031715;28;20056;-62
2022/05/06 12:41:19;;;;;;;9.68;3.55;;;;;;;;;;5017128;28;20053;-60
2022/05/06 12:43:46;;;;;;;7.85;4.28;;;;;;;;;;5025325;28;20054;-60
2022/05/06 12:46:24;;;;;;;4.72;2.45;;;;;;;;;;5002827;28;20054;-59
2022/05/06 12:51:34;;;;;;;7.57;3.83;;;;;;;;;;5019055;28;20115;-60
2022/05/06 12:54:01;;;;;;;10.70;3.92;;;;;;;;;;5027690;28;20425;-62
2022/05/06 12:56:29;;;;;;;6.05;2.70;;;;;;;;;;5036602;28;20117;-60
2022/05/06 12:58:55;;;;;;;13.25;5.53;;;;;;;;;;5042911;28;20054;-60
2022/05/06 13:01:23;;;;;;;13.93;5.50;;;;;;;;;;5044715;28;20057;-60
2022/05/06 13:03:50;;;;;;;6.43;3.28;;;;;;;;;;5041205;28;20057;-59
2022/05/06 13:06:19;;;;;;;7.00;2.40;;;;;;;;;;5019658;28;20153;-60
2022/05/06 13:08:45;;;;;;;6.38;3.63;;;;;;;;;;5003228;28;20068;-60
2022/05/06 13:11:12;;;;;;;10.10;4.97;;;;;;;;;;5030076;28;20132;-59
2022/05/06 13:13:40;;;;;;;9.35;4.72;;;;;;;;;;5038769;28;20057;-59
2022/05/06 13:16:11;;;;;;;5.93;2.72;;;;;;;;;;5045156;28;20050;-60
2022/05/06 13:18:38;;;;;;;12.02;5.20;;;;;;;;;;5038529;28;20041;-59
2022/05/06 13:21:05;;;;;;;9.02;3.95;;;;;;;;;;5029762;28;20049;-59
2022/05/06 13:23:32;;;;;;;11.13;5.00;;;;;;;;;;5036221;28;20080;-59
2022/05/06 13:25:59;;;;;;;12.07;4.38;;;;;;;;;;5035098;28;20056;-59
2022/05/06 13:28:25;;;;;;;11.50;4.65;;;;;;;;;;5023767;28;20104;-59
2022/05/06 13:30:56;;;;;;;10.95;5.18;;;;;;;;;;5032073;28;20053;-60
2022/05/06 13:33:22;;;;;;;8.65;4.30;;;;;;;;;;5028302;28;20062;-59
2022/05/06 13:35:49;;;;;;;11.63;4.43;;;;;;;;;;5035629;28;20059;-59
2022/05/06 13:38:16;;;;;;;8.50;3.22;;;;;;;;;;5033127;28;20049;-59
2022/05/06 13:40:46;;;;;;;13.70;5.22;;;;;;;;;;5044211;28;20048;-59
2022/05/06 13:43:12;;;;;;;12.45;4.93;;;;;;;;;;5031167;28;20060;-61
2022/05/06 13:45:39;;;;;;;10.57;3.72;;;;;;;;;;5044631;28;20049;-63
2022/05/06 13:48:08;;;;;;;7.73;3.00;;;;;;;;;;5038163;28;20053;-59
2022/05/06 13:50:35;;;;;;;;;;;;;;;;;;5039080;28;20308;-61
2022/05/06 13:53:02;;;;;;;7.07;3.00;;;;;;;;;;5043422;28;19921;-61
2022/05/06 13:59:03;;;;;;;6.22;2.67;;;;;;;;;;5021694;28;20053;-61
2022/05/06 14:01:00;;;;;;;10.85;4.68;;;;;;;;;;5036099;28;20053;-60
2022/05/06 14:03:27;;;;;;;11.25;4.53;;;;;;;;;;5038956;28;20112;-59
2022/05/06 14:05:54;;;;;;;9.15;3.80;;;;;;;;;;5048929;28;20103;-61
2022/05/06 14:08:21;;;;;;;9.10;4.32;;;;;;;;;;5028066;28;20054;-62
2022/05/06 14:10:47;;;;;;;12.85;5.55;;;;;;;;;;5029629;28;20049;-62
2022/05/06 14:13:14;;;;;;;11.77;5.05;;;;;;;;;;5043640;28;20053;-63
2022/05/06 14:15:40;;;;;;;12.13;4.00;;;;;;;;;;5036990;28;20064;-60
2022/05/06 14:18:07;;;;;;;12.00;5.03;;;;;;;;;;5043963;28;20057;-62
2022/05/06 14:20:36;;;;;;;17.90;8.07;;;;;;;;;;5034180;28;20057;-61
2022/05/06 14:23:02;;;;;;;;;;;;;;;;;;5007365;28;20141;-60
2022/05/06 14:25:29;;;;;;;15.05;6.10;;;;;;;;;;5037259;28;19932;-61
2022/05/06 14:27:55;;;;;;;8.52;3.63;;;;;;;;;;5044138;28;20049;-61
2022/05/06 14:30:22;;;;;;;15.52;6.63;;;;;;;;;;5035263;28;20103;-60
2022/05/06 14:32:49;;;;;;;15.88;6.95;;;;;;;;;;5045459;28;20041;-61
2022/05/06 14:35:19;;;;;;;10.50;4.55;;;;;;;;;;5038767;28;20049;-61
2022/05/06 14:37:48;;;;;;;17.10;8.20;;;;;;;;;;5028744;28;20063;-62
2022/05/06 14:40:16;;;;;;;17.45;6.22;;;;;;;;;;5025063;28;20103;-60
2022/05/06 14:42:43;;;;;;;13.95;6.63;;;;;;;;;;5043015;28;20045;-60
2022/05/06 14:45:10;;;;;;;14.55;5.38;;;;;;;;;;5046145;28;20099;-60
2022/05/06 14:47:37;;;;;;;13.13;5.18;;;;;;;;;;5031075;28;20068;-64
2022/05/06 14:50:05;;;;;;;12.65;4.60;;;;;;;;;;5045717;28;20065;-60
2022/05/06 14:52:31;;;;;;;13.40;6.63;;;;;;;;;;5037059;28;20057;-60
2022/05/06 14:55:01;;;;;;;12.95;6.03;;;;;;;;;;5027593;28;20054;-60
2022/05/06 14:57:28;;;;;;;14.52;7.05;;;;;;;;;;5021290;28;20085;-62
2022/05/06 14:59:54;;;;;;;9.13;4.30;;;;;;;;;;5027799;28;20107;-58
2022/05/06 15:02:21;;;;;;;18.63;7.97;;;;;;;;;;5022126;28;20119;-59
2022/05/06 15:04:47;;;;;;;11.13;4.68;;;;;;;;;;5045844;28;20064;-61
2022/05/06 15:07:14;;;;;;;12.68;5.65;;;;;;;;;;5020803;28;20057;-59
2022/05/06 15:09:42;;;;;;;19.40;8.13;;;;;;;;;;5027138;28;20053;-60
2022/05/06 15:12:12;;;;;;;10.15;4.63;;;;;;;;;;5020614;28;20095;-60
2022/05/06 15:14:38;;;;;;;17.77;8.45;;;;;;;;;;5043743;28;20146;-60
2022/05/06 15:17:06;;;;;;;19.10;8.15;;;;;;;;;;5037818;28;20056;-60
2022/05/06 15:19:34;;;;;;;15.10;7.10;;;;;;;;;;5026372;28;20068;-60
2022/05/06 15:22:01;;;;;;;18.70;8.65;;;;;;;;;;5038178;28;20058;-60
2022/05/06 15:24:28;;;;;;;14.63;6.57;;;;;;;;;;5026789;28;20062;-60
2022/05/06 15:26:57;;;;;;;15.23;6.95;;;;;;;;;;5043256;28;20132;-59
2022/05/06 15:29:26;;;;;;;10.10;4.72;;;;;;;;;;5037180;28;20067;-60
2022/05/06 15:31:52;;;;;;;8.48;4.22;;;;;;;;;;5044369;28;20053;-65
2022/05/06 15:34:19;;;;;;;15.63;8.38;;;;;;;;;;5038237;28;20071;-61